Terminal Aerodrome Forecast
Issued by NWS

Home | Current Version | Previous Version | Text Only | Print | Product List | Glossary On
Versions: 1 2 3 4 5 6 7 8 9 10 11 12 13 14 15 16 17 18 19 20 21 22 23 24 25 26 27 28 29 30 31 32 33 34 35 36 37 38 39 40 41 42 43
000
FTAK31 PANC 291134
TAFATK
TAF
PATK 291134Z 2912/3012 VRB04KT 6SM RA BR BKN007 OVC012
      TEMPO 2912/2914 P6SM -RA OVC025
     FM291500 VRB03KT P6SM VCSH BKN015 OVC035
     FM292200 VRB03KT P6SM SCT030 BKN100=

USA.gov is the U.S. government's official web portal to all federal, state and local government web resources and services.